sensor_id;sensor_type;location;lat;lon;timestamp;P1;durP1;ratioP1;P2;durP2;ratioP2
16828;SDS011;8531;48.078;11.968;2024-03-08T00:00:40;15.80;;;11.23;;
16828;SDS011;8531;48.078;11.968;2024-03-08T00:03:07;14.07;;;10.73;;
16828;SDS011;8531;48.078;11.968;2024-03-08T00:05:35;15.17;;;9.77;;
16828;SDS011;8531;48.078;11.968;2024-03-08T00:08:01;16.00;;;10.20;;
16828;SDS011;8531;48.078;11.968;2024-03-08T00:10:27;13.90;;;10.53;;
16828;SDS011;8531;48.078;11.968;2024-03-08T00:12:54;14.53;;;10.30;;
16828;SDS011;8531;48.078;11.968;2024-03-08T00:15:19;16.23;;;11.07;;
16828;SDS011;8531;48.078;11.968;2024-03-08T00:17:48;15.10;;;10.40;;
16828;SDS011;8531;48.078;11.968;2024-03-08T00:20:14;15.37;;;10.83;;
16828;SDS011;8531;48.078;11.968;2024-03-08T00:22:42;17.77;;;11.87;;
16828;SDS011;8531;48.078;11.968;2024-03-08T00:25:08;15.23;;;10.83;;
16828;SDS011;8531;48.078;11.968;2024-03-08T00:27:34;16.00;;;11.20;;
16828;SDS011;8531;48.078;11.968;2024-03-08T00:30:00;15.83;;;11.20;;
16828;SDS011;8531;48.078;11.968;2024-03-08T00:32:26;16.47;;;11.57;;
16828;SDS011;8531;48.078;11.968;2024-03-08T00:34:56;15.97;;;10.83;;
16828;SDS011;8531;48.078;11.968;2024-03-08T00:37:23;13.33;;;10.40;;
16828;SDS011;8531;48.078;11.968;2024-03-08T00:39:52;15.90;;;11.30;;
16828;SDS011;8531;48.078;11.968;2024-03-08T00:42:18;15.60;;;11.17;;
16828;SDS011;8531;48.078;11.968;2024-03-08T00:44:44;14.13;;;10.07;;
16828;SDS011;8531;48.078;11.968;2024-03-08T00:47:10;14.87;;;10.63;;
16828;SDS011;8531;48.078;11.968;2024-03-08T00:49:37;15.07;;;11.37;;
16828;SDS011;8531;48.078;11.968;2024-03-08T00:52:06;15.87;;;11.00;;
16828;SDS011;8531;48.078;11.968;2024-03-08T00:54:32;18.13;;;11.37;;
16828;SDS011;8531;48.078;11.968;2024-03-08T00:56:58;15.93;;;11.50;;
16828;SDS011;8531;48.078;11.968;2024-03-08T00:59:23;17.20;;;11.43;;
16828;SDS011;8531;48.078;11.968;2024-03-08T01:01:49;18.60;;;11.50;;
16828;SDS011;8531;48.078;11.968;2024-03-08T01:04:15;17.90;;;12.20;;
16828;SDS011;8531;48.078;11.968;2024-03-08T01:06:40;17.33;;;11.57;;
16828;SDS011;8531;48.078;11.968;2024-03-08T01:09:09;17.17;;;11.30;;
16828;SDS011;8531;48.078;11.968;2024-03-08T01:11:35;17.90;;;11.47;;
16828;SDS011;8531;48.078;11.968;2024-03-08T01:14:00;14.50;;;11.27;;
16828;SDS011;8531;48.078;11.968;2024-03-08T01:16:26;16.13;;;10.77;;
16828;SDS011;8531;48.078;11.968;2024-03-08T01:18:52;17.20;;;11.20;;
16828;SDS011;8531;48.078;11.968;2024-03-08T01:21:17;15.77;;;11.37;;
16828;SDS011;8531;48.078;11.968;2024-03-08T01:23:43;17.13;;;10.73;;
16828;SDS011;8531;48.078;11.968;2024-03-08T01:26:09;17.07;;;11.53;;
16828;SDS011;8531;48.078;11.968;2024-03-08T01:28:34;16.93;;;11.63;;
16828;SDS011;8531;48.078;11.968;2024-03-08T01:31:00;17.67;;;11.57;;
16828;SDS011;8531;48.078;11.968;2024-03-08T01:33:26;16.23;;;11.00;;
16828;SDS011;8531;48.078;11.968;2024-03-08T01:35:52;16.43;;;11.97;;
16828;SDS011;8531;48.078;11.968;2024-03-08T01:38:19;16.23;;;11.77;;
16828;SDS011;8531;48.078;11.968;2024-03-08T01:40:46;17.40;;;11.90;;
16828;SDS011;8531;48.078;11.968;2024-03-08T01:45:45;18.30;;;11.93;;
16828;SDS011;8531;48.078;11.968;2024-03-08T01:48:11;20.47;;;12.63;;
16828;SDS011;8531;48.078;11.968;2024-03-08T01:50:37;18.70;;;13.37;;
16828;SDS011;8531;48.078;11.968;2024-03-08T01:53:04;17.67;;;11.57;;
16828;SDS011;8531;48.078;11.968;2024-03-08T01:55:31;18.53;;;11.97;;
16828;SDS011;8531;48.078;11.968;2024-03-08T01:57:57;16.03;;;11.33;;
16828;SDS011;8531;48.078;11.968;2024-03-08T02:00:24;17.77;;;11.87;;
16828;SDS011;8531;48.078;11.968;2024-03-08T02:02:51;15.83;;;11.30;;
16828;SDS011;8531;48.078;11.968;2024-03-08T02:05:19;17.90;;;12.33;;
16828;SDS011;8531;48.078;11.968;2024-03-08T02:07:46;17.43;;;12.00;;
16828;SDS011;8531;48.078;11.968;2024-03-08T02:10:12;18.73;;;12.40;;
16828;SDS011;8531;48.078;11.968;2024-03-08T02:12:38;19.20;;;12.87;;
16828;SDS011;8531;48.078;11.968;2024-03-08T02:15:04;18.47;;;13.20;;
16828;SDS011;8531;48.078;11.968;2024-03-08T02:17:31;16.63;;;12.13;;
16828;SDS011;8531;48.078;11.968;2024-03-08T02:19:58;17.27;;;12.00;;
16828;SDS011;8531;48.078;11.968;2024-03-08T02:22:26;16.67;;;11.67;;
16828;SDS011;8531;48.078;11.968;2024-03-08T02:24:54;14.83;;;11.30;;
16828;SDS011;8531;48.078;11.968;2024-03-08T02:27:24;17.80;;;11.93;;
16828;SDS011;8531;48.078;11.968;2024-03-08T02:29:54;16.53;;;11.93;;
16828;SDS011;8531;48.078;11.968;2024-03-08T02:32:21;19.17;;;12.30;;
16828;SDS011;8531;48.078;11.968;2024-03-08T02:34:50;19.03;;;13.20;;
16828;SDS011;8531;48.078;11.968;2024-03-08T02:37:16;16.80;;;12.10;;
16828;SDS011;8531;48.078;11.968;2024-03-08T02:39:42;19.37;;;12.87;;
16828;SDS011;8531;48.078;11.968;2024-03-08T02:42:08;19.37;;;12.37;;
16828;SDS011;8531;48.078;11.968;2024-03-08T02:44:33;17.50;;;12.53;;
16828;SDS011;8531;48.078;11.968;2024-03-08T02:46:59;19.60;;;13.23;;
16828;SDS011;8531;48.078;11.968;2024-03-08T02:49:26;19.70;;;13.27;;
16828;SDS011;8531;48.078;11.968;2024-03-08T02:51:52;17.20;;;12.93;;
16828;SDS011;8531;48.078;11.968;2024-03-08T02:54:18;19.33;;;13.57;;
16828;SDS011;8531;48.078;11.968;2024-03-08T02:56:44;22.77;;;14.33;;
16828;SDS011;8531;48.078;11.968;2024-03-08T02:59:15;20.97;;;13.67;;
16828;SDS011;8531;48.078;11.968;2024-03-08T03:01:42;20.97;;;13.93;;
16828;SDS011;8531;48.078;11.968;2024-03-08T03:04:08;20.67;;;13.93;;
16828;SDS011;8531;48.078;11.968;2024-03-08T03:06:34;22.50;;;15.20;;
16828;SDS011;8531;48.078;11.968;2024-03-08T03:09:00;22.47;;;14.43;;
16828;SDS011;8531;48.078;11.968;2024-03-08T03:11:26;18.80;;;12.57;;
16828;SDS011;8531;48.078;11.968;2024-03-08T03:13:52;21.27;;;13.43;;
16828;SDS011;8531;48.078;11.968;2024-03-08T03:16:18;20.33;;;14.20;;
16828;SDS011;8531;48.078;11.968;2024-03-08T03:18:47;19.97;;;13.47;;
16828;SDS011;8531;48.078;11.968;2024-03-08T03:21:14;21.90;;;14.13;;
16828;SDS011;8531;48.078;11.968;2024-03-08T03:23:40;22.53;;;15.33;;
16828;SDS011;8531;48.078;11.968;2024-03-08T03:26:07;22.57;;;14.40;;
16828;SDS011;8531;48.078;11.968;2024-03-08T03:28:33;21.50;;;14.17;;
16828;SDS011;8531;48.078;11.968;2024-03-08T03:30:59;23.00;;;14.27;;
16828;SDS011;8531;48.078;11.968;2024-03-08T03:33:26;23.63;;;15.80;;
16828;SDS011;8531;48.078;11.968;2024-03-08T03:35:52;21.07;;;14.73;;
16828;SDS011;8531;48.078;11.968;2024-03-08T03:38:17;19.93;;;13.23;;
16828;SDS011;8531;48.078;11.968;2024-03-08T03:40:44;20.20;;;12.93;;
16828;SDS011;8531;48.078;11.968;2024-03-08T03:43:11;19.97;;;14.00;;
16828;SDS011;8531;48.078;11.968;2024-03-08T03:45:37;20.40;;;14.47;;
16828;SDS011;8531;48.078;11.968;2024-03-08T03:48:05;21.10;;;14.00;;
16828;SDS011;8531;48.078;11.968;2024-03-08T03:50:31;21.50;;;13.87;;
16828;SDS011;8531;48.078;11.968;2024-03-08T03:53:00;20.50;;;13.70;;
16828;SDS011;8531;48.078;11.968;2024-03-08T03:55:26;31.33;;;16.10;;
16828;SDS011;8531;48.078;11.968;2024-03-08T03:57:52;21.33;;;13.70;;
16828;SDS011;8531;48.078;11.968;2024-03-08T04:00:18;23.50;;;15.57;;
16828;SDS011;8531;48.078;11.968;2024-03-08T04:02:44;23.17;;;14.73;;
16828;SDS011;8531;48.078;11.968;2024-03-08T04:05:10;19.70;;;13.67;;
16828;SDS011;8531;48.078;11.968;2024-03-08T04:07:36;20.70;;;14.90;;
16828;SDS011;8531;48.078;11.968;2024-03-08T04:10:03;19.97;;;14.53;;
16828;SDS011;8531;48.078;11.968;2024-03-08T04:12:31;21.73;;;14.87;;
16828;SDS011;8531;48.078;11.968;2024-03-08T04:15:00;24.43;;;14.63;;
16828;SDS011;8531;48.078;11.968;2024-03-08T04:17:26;22.73;;;15.20;;
16828;SDS011;8531;48.078;11.968;2024-03-08T04:19:52;24.70;;;16.63;;
16828;SDS011;8531;48.078;11.968;2024-03-08T04:22:18;23.67;;;14.63;;
16828;SDS011;8531;48.078;11.968;2024-03-08T04:24:44;21.43;;;14.27;;
16828;SDS011;8531;48.078;11.968;2024-03-08T04:27:11;22.67;;;15.50;;
16828;SDS011;8531;48.078;11.968;2024-03-08T04:29:37;24.20;;;16.03;;
16828;SDS011;8531;48.078;11.968;2024-03-08T04:32:03;22.47;;;15.23;;
16828;SDS011;8531;48.078;11.968;2024-03-08T04:34:30;24.60;;;15.07;;
16828;SDS011;8531;48.078;11.968;2024-03-08T04:36:59;23.07;;;15.60;;
16828;SDS011;8531;48.078;11.968;2024-03-08T04:39:25;23.43;;;15.13;;
16828;SDS011;8531;48.078;11.968;2024-03-08T04:41:54;23.77;;;15.33;;
16828;SDS011;8531;48.078;11.968;2024-03-08T04:44:23;23.43;;;15.33;;
16828;SDS011;8531;48.078;11.968;2024-03-08T04:46:52;24.33;;;15.53;;
16828;SDS011;8531;48.078;11.968;2024-03-08T04:49:17;24.23;;;16.00;;
16828;SDS011;8531;48.078;11.968;2024-03-08T04:51:43;24.80;;;14.67;;
16828;SDS011;8531;48.078;11.968;2024-03-08T04:54:10;26.07;;;16.23;;
16828;SDS011;8531;48.078;11.968;2024-03-08T04:56:35;22.87;;;15.10;;
16828;SDS011;8531;48.078;11.968;2024-03-08T04:59:01;23.93;;;16.07;;
16828;SDS011;8531;48.078;11.968;2024-03-08T05:01:27;26.67;;;17.37;;
16828;SDS011;8531;48.078;11.968;2024-03-08T05:03:52;28.27;;;16.70;;
16828;SDS011;8531;48.078;11.968;2024-03-08T05:06:20;30.13;;;17.67;;
16828;SDS011;8531;48.078;11.968;2024-03-08T05:08:46;24.73;;;16.60;;
16828;SDS011;8531;48.078;11.968;2024-03-08T05:11:11;29.27;;;16.97;;
16828;SDS011;8531;48.078;11.968;2024-03-08T05:13:39;29.50;;;17.93;;
16828;SDS011;8531;48.078;11.968;2024-03-08T05:16:05;31.43;;;18.37;;
16828;SDS011;8531;48.078;11.968;2024-03-08T05:18:32;31.87;;;18.47;;
16828;SDS011;8531;48.078;11.968;2024-03-08T05:20:58;29.30;;;18.37;;
16828;SDS011;8531;48.078;11.968;2024-03-08T05:23:24;30.13;;;18.80;;
16828;SDS011;8531;48.078;11.968;2024-03-08T05:25:50;28.00;;;17.87;;
16828;SDS011;8531;48.078;11.968;2024-03-08T05:28:16;29.20;;;18.73;;
16828;SDS011;8531;48.078;11.968;2024-03-08T05:30:42;28.90;;;18.57;;
16828;SDS011;8531;48.078;11.968;2024-03-08T05:33:07;31.93;;;18.50;;
16828;SDS011;8531;48.078;11.968;2024-03-08T05:35:36;28.87;;;17.77;;
16828;SDS011;8531;48.078;11.968;2024-03-08T05:38:02;30.40;;;18.97;;
16828;SDS011;8531;48.078;11.968;2024-03-08T05:40:28;29.20;;;18.20;;
16828;SDS011;8531;48.078;11.968;2024-03-08T05:42:57;32.43;;;19.53;;
16828;SDS011;8531;48.078;11.968;2024-03-08T05:45:24;28.63;;;18.30;;
16828;SDS011;8531;48.078;11.968;2024-03-08T05:47:50;29.90;;;18.57;;
16828;SDS011;8531;48.078;11.968;2024-03-08T05:50:17;30.30;;;19.40;;
16828;SDS011;8531;48.078;11.968;2024-03-08T05:52:42;31.10;;;18.73;;
16828;SDS011;8531;48.078;11.968;2024-03-08T05:55:08;26.70;;;19.17;;
16828;SDS011;8531;48.078;11.968;2024-03-08T05:57:34;33.77;;;19.53;;
16828;SDS011;8531;48.078;11.968;2024-03-08T06:00:03;31.27;;;19.43;;
16828;SDS011;8531;48.078;11.968;2024-03-08T06:02:29;31.43;;;18.87;;
16828;SDS011;8531;48.078;11.968;2024-03-08T06:04:55;32.27;;;18.97;;
16828;SDS011;8531;48.078;11.968;2024-03-08T06:07:20;30.30;;;19.07;;
16828;SDS011;8531;48.078;11.968;2024-03-08T06:09:46;33.23;;;20.03;;
16828;SDS011;8531;48.078;11.968;2024-03-08T06:12:13;32.87;;;19.87;;
16828;SDS011;8531;48.078;11.968;2024-03-08T06:14:44;30.93;;;19.03;;
16828;SDS011;8531;48.078;11.968;2024-03-08T06:17:10;31.27;;;19.93;;
16828;SDS011;8531;48.078;11.968;2024-03-08T06:19:36;33.47;;;20.30;;
16828;SDS011;8531;48.078;11.968;2024-03-08T06:22:02;33.40;;;19.93;;
16828;SDS011;8531;48.078;11.968;2024-03-08T06:24:30;29.00;;;18.97;;
16828;SDS011;8531;48.078;11.968;2024-03-08T06:26:57;34.27;;;19.13;;
16828;SDS011;8531;48.078;11.968;2024-03-08T06:29:22;32.00;;;20.23;;
16828;SDS011;8531;48.078;11.968;2024-03-08T06:31:48;46.30;;;26.13;;
16828;SDS011;8531;48.078;11.968;2024-03-08T06:34:14;35.37;;;20.73;;
16828;SDS011;8531;48.078;11.968;2024-03-08T06:36:40;29.93;;;19.23;;
16828;SDS011;8531;48.078;11.968;2024-03-08T06:39:06;36.70;;;21.77;;
16828;SDS011;8531;48.078;11.968;2024-03-08T06:41:37;34.67;;;20.40;;
16828;SDS011;8531;48.078;11.968;2024-03-08T06:44:03;42.57;;;21.87;;
16828;SDS011;8531;48.078;11.968;2024-03-08T06:46:29;40.97;;;20.17;;
16828;SDS011;8531;48.078;11.968;2024-03-08T06:48:55;36.60;;;20.93;;
16828;SDS011;8531;48.078;11.968;2024-03-08T06:51:21;38.87;;;20.83;;
16828;SDS011;8531;48.078;11.968;2024-03-08T06:53:47;35.43;;;21.10;;
16828;SDS011;8531;48.078;11.968;2024-03-08T06:56:14;36.73;;;21.10;;
16828;SDS011;8531;48.078;11.968;2024-03-08T06:58:40;38.57;;;21.13;;
16828;SDS011;8531;48.078;11.968;2024-03-08T07:01:07;38.33;;;20.90;;
16828;SDS011;8531;48.078;11.968;2024-03-08T07:03:38;40.60;;;19.50;;
16828;SDS011;8531;48.078;11.968;2024-03-08T07:06:09;36.80;;;20.70;;
16828;SDS011;8531;48.078;11.968;2024-03-08T07:08:35;30.07;;;18.57;;
16828;SDS011;8531;48.078;11.968;2024-03-08T07:11:01;31.37;;;19.90;;
16828;SDS011;8531;48.078;11.968;2024-03-08T07:13:27;34.83;;;20.67;;
16828;SDS011;8531;48.078;11.968;2024-03-08T07:15:56;33.60;;;18.10;;
16828;SDS011;8531;48.078;11.968;2024-03-08T07:18:22;29.83;;;18.10;;
16828;SDS011;8531;48.078;11.968;2024-03-08T07:20:47;37.87;;;21.37;;
16828;SDS011;8531;48.078;11.968;2024-03-08T07:23:14;32.27;;;18.70;;
16828;SDS011;8531;48.078;11.968;2024-03-08T07:26:00;32.47;;;18.87;;
16828;SDS011;8531;48.078;11.968;2024-03-08T07:28:26;45.53;;;20.90;;
16828;SDS011;8531;48.078;11.968;2024-03-08T07:30:52;30.60;;;17.80;;
16828;SDS011;8531;48.078;11.968;2024-03-08T07:33:26;34.80;;;18.00;;
16828;SDS011;8531;48.078;11.968;2024-03-08T07:35:52;31.60;;;19.00;;
16828;SDS011;8531;48.078;11.968;2024-03-08T07:38:18;34.17;;;19.43;;
16828;SDS011;8531;48.078;11.968;2024-03-08T07:40:46;32.23;;;18.37;;
16828;SDS011;8531;48.078;11.968;2024-03-08T07:43:13;29.00;;;18.20;;
16828;SDS011;8531;48.078;11.968;2024-03-08T07:45:39;35.37;;;18.63;;
16828;SDS011;8531;48.078;11.968;2024-03-08T07:48:05;27.13;;;17.43;;
16828;SDS011;8531;48.078;11.968;2024-03-08T07:50:38;32.10;;;18.63;;
16828;SDS011;8531;48.078;11.968;2024-03-08T07:53:04;29.87;;;18.23;;
16828;SDS011;8531;48.078;11.968;2024-03-08T07:55:33;27.53;;;17.33;;
16828;SDS011;8531;48.078;11.968;2024-03-08T07:58:00;26.73;;;17.57;;
16828;SDS011;8531;48.078;11.968;2024-03-08T08:00:26;27.00;;;15.90;;
16828;SDS011;8531;48.078;11.968;2024-03-08T08:02:52;25.70;;;17.20;;
16828;SDS011;8531;48.078;11.968;2024-03-08T08:05:18;24.20;;;15.73;;
16828;SDS011;8531;48.078;11.968;2024-03-08T08:07:45;23.77;;;15.60;;
16828;SDS011;8531;48.078;11.968;2024-03-08T08:10:14;25.97;;;16.67;;
16828;SDS011;8531;48.078;11.968;2024-03-08T08:12:46;27.70;;;16.73;;
16828;SDS011;8531;48.078;11.968;2024-03-08T08:15:13;24.90;;;15.87;;
16828;SDS011;8531;48.078;11.968;2024-03-08T08:17:40;28.27;;;16.63;;
16828;SDS011;8531;48.078;11.968;2024-03-08T08:20:07;27.57;;;17.37;;
16828;SDS011;8531;48.078;11.968;2024-03-08T08:22:34;26.53;;;16.70;;
16828;SDS011;8531;48.078;11.968;2024-03-08T08:25:00;28.83;;;18.33;;
16828;SDS011;8531;48.078;11.968;2024-03-08T08:27:26;33.17;;;16.57;;
16828;SDS011;8531;48.078;11.968;2024-03-08T08:29:52;26.10;;;16.30;;
16828;SDS011;8531;48.078;11.968;2024-03-08T08:32:18;30.60;;;15.53;;
16828;SDS011;8531;48.078;11.968;2024-03-08T08:34:43;28.83;;;16.57;;
16828;SDS011;8531;48.078;11.968;2024-03-08T08:37:09;23.83;;;15.57;;
16828;SDS011;8531;48.078;11.968;2024-03-08T08:39:35;23.67;;;15.23;;
16828;SDS011;8531;48.078;11.968;2024-03-08T08:42:02;26.80;;;15.90;;
16828;SDS011;8531;48.078;11.968;2024-03-08T08:44:28;28.33;;;15.93;;
16828;SDS011;8531;48.078;11.968;2024-03-08T08:46:56;22.90;;;15.07;;
16828;SDS011;8531;48.078;11.968;2024-03-08T08:49:22;28.25;;;16.98;;
16828;SDS011;8531;48.078;11.968;2024-03-08T08:51:51;23.53;;;14.60;;
16828;SDS011;8531;48.078;11.968;2024-03-08T08:54:17;23.02;;;14.50;;
16828;SDS011;8531;48.078;11.968;2024-03-08T08:56:43;25.10;;;15.90;;
16828;SDS011;8531;48.078;11.968;2024-03-08T08:59:09;23.15;;;15.20;;
16828;SDS011;8531;48.078;11.968;2024-03-08T09:01:39;21.70;;;14.63;;
16828;SDS011;8531;48.078;11.968;2024-03-08T09:04:05;25.92;;;15.25;;
16828;SDS011;8531;48.078;11.968;2024-03-08T09:06:31;26.27;;;14.95;;
16828;SDS011;8531;48.078;11.968;2024-03-08T09:08:57;24.77;;;14.48;;
16828;SDS011;8531;48.078;11.968;2024-03-08T09:11:23;21.58;;;13.80;;
16828;SDS011;8531;48.078;11.968;2024-03-08T09:13:50;18.55;;;13.13;;
16828;SDS011;8531;48.078;11.968;2024-03-08T09:16:16;20.80;;;13.05;;
16828;SDS011;8531;48.078;11.968;2024-03-08T09:18:41;22.95;;;13.40;;
16828;SDS011;8531;48.078;11.968;2024-03-08T09:21:07;22.20;;;14.43;;
16828;SDS011;8531;48.078;11.968;2024-03-08T09:23:35;19.73;;;13.20;;
16828;SDS011;8531;48.078;11.968;2024-03-08T09:26:01;20.83;;;14.73;;
16828;SDS011;8531;48.078;11.968;2024-03-08T09:28:28;21.55;;;13.73;;
16828;SDS011;8531;48.078;11.968;2024-03-08T09:30:54;21.85;;;13.85;;
16828;SDS011;8531;48.078;11.968;2024-03-08T09:33:20;20.65;;;13.35;;
16828;SDS011;8531;48.078;11.968;2024-03-08T09:35:47;26.60;;;14.15;;
16828;SDS011;8531;48.078;11.968;2024-03-08T09:38:13;22.42;;;14.70;;
16828;SDS011;8531;48.078;11.968;2024-03-08T09:40:43;20.98;;;14.00;;
16828;SDS011;8531;48.078;11.968;2024-03-08T09:43:12;19.73;;;14.05;;
16828;SDS011;8531;48.078;11.968;2024-03-08T09:45:38;21.77;;;13.52;;
16828;SDS011;8531;48.078;11.968;2024-03-08T09:48:12;21.13;;;13.18;;
16828;SDS011;8531;48.078;11.968;2024-03-08T09:50:41;18.13;;;13.27;;
16828;SDS011;8531;48.078;11.968;2024-03-08T09:53:07;33.25;;;13.90;;
16828;SDS011;8531;48.078;11.968;2024-03-08T09:55:35;28.13;;;17.05;;
16828;SDS011;8531;48.078;11.968;2024-03-08T09:58:02;18.05;;;13.50;;
16828;SDS011;8531;48.078;11.968;2024-03-08T10:01:01;23.23;;;13.90;;
16828;SDS011;8531;48.078;11.968;2024-03-08T10:03:29;17.35;;;13.25;;
16828;SDS011;8531;48.078;11.968;2024-03-08T10:05:57;19.10;;;13.10;;
16828;SDS011;8531;48.078;11.968;2024-03-08T10:08:29;20.33;;;14.45;;
16828;SDS011;8531;48.078;11.968;2024-03-08T10:10:58;20.52;;;13.73;;
16828;SDS011;8531;48.078;11.968;2024-03-08T10:13:24;20.38;;;14.57;;
16828;SDS011;8531;48.078;11.968;2024-03-08T10:15:53;18.60;;;13.82;;
16828;SDS011;8531;48.078;11.968;2024-03-08T10:18:19;19.02;;;14.35;;
16828;SDS011;8531;48.078;11.968;2024-03-08T10:20:46;25.27;;;14.40;;
16828;SDS011;8531;48.078;11.968;2024-03-08T10:23:28;19.73;;;13.05;;
16828;SDS011;8531;48.078;11.968;2024-03-08T10:25:54;18.58;;;13.82;;
16828;SDS011;8531;48.078;11.968;2024-03-08T10:28:23;18.63;;;13.27;;
16828;SDS011;8531;48.078;11.968;2024-03-08T10:30:53;22.33;;;14.10;;
16828;SDS011;8531;48.078;11.968;2024-03-08T10:33:23;18.73;;;12.85;;
16828;SDS011;8531;48.078;11.968;2024-03-08T10:35:48;19.95;;;13.52;;
16828;SDS011;8531;48.078;11.968;2024-03-08T10:38:14;21.67;;;12.52;;
16828;SDS011;8531;48.078;11.968;2024-03-08T10:40:46;17.83;;;13.40;;
16828;SDS011;8531;48.078;11.968;2024-03-08T10:43:18;19.35;;;13.52;;
16828;SDS011;8531;48.078;11.968;2024-03-08T10:46:07;18.15;;;13.98;;
16828;SDS011;8531;48.078;11.968;2024-03-08T10:48:47;16.85;;;13.00;;
16828;SDS011;8531;48.078;11.968;2024-03-08T10:51:16;17.35;;;12.55;;
16828;SDS011;8531;48.078;11.968;2024-03-08T10:53:44;19.13;;;12.57;;
16828;SDS011;8531;48.078;11.968;2024-03-08T10:56:13;18.92;;;12.55;;
16828;SDS011;8531;48.078;11.968;2024-03-08T10:58:39;18.85;;;12.10;;
16828;SDS011;8531;48.078;11.968;2024-03-08T11:01:06;19.40;;;12.23;;
16828;SDS011;8531;48.078;11.968;2024-03-08T11:08:54;15.70;;;11.85;;
16828;SDS011;8531;48.078;11.968;2024-03-08T11:11:24;16.52;;;11.77;;
16828;SDS011;8531;48.078;11.968;2024-03-08T11:13:52;17.60;;;12.27;;
16828;SDS011;8531;48.078;11.968;2024-03-08T11:18:54;18.35;;;11.50;;
16828;SDS011;8531;48.078;11.968;2024-03-08T11:21:25;15.63;;;12.30;;
16828;SDS011;8531;48.078;11.968;2024-03-08T11:24:08;14.40;;;11.05;;
16828;SDS011;8531;48.078;11.968;2024-03-08T11:26:38;14.40;;;11.43;;
16828;SDS011;8531;48.078;11.968;2024-03-08T11:31:52;18.95;;;12.15;;
16828;SDS011;8531;48.078;11.968;2024-03-08T11:34:28;16.80;;;12.68;;
16828;SDS011;8531;48.078;11.968;2024-03-08T11:36:55;16.25;;;11.90;;
16828;SDS011;8531;48.078;11.968;2024-03-08T11:39:21;16.52;;;12.52;;
16828;SDS011;8531;48.078;11.968;2024-03-08T11:41:49;18.15;;;12.80;;
16828;SDS011;8531;48.078;11.968;2024-03-08T11:44:16;15.48;;;12.10;;
16828;SDS011;8531;48.078;11.968;2024-03-08T11:46:42;17.23;;;12.95;;
16828;SDS011;8531;48.078;11.968;2024-03-08T11:49:12;14.73;;;12.00;;
16828;SDS011;8531;48.078;11.968;2024-03-08T11:51:38;14.65;;;11.60;;
16828;SDS011;8531;48.078;11.968;2024-03-08T11:54:04;14.75;;;11.27;;
16828;SDS011;8531;48.078;11.968;2024-03-08T11:56:31;16.77;;;12.43;;
16828;SDS011;8531;48.078;11.968;2024-03-08T11:58:57;21.25;;;12.50;;
16828;SDS011;8531;48.078;11.968;2024-03-08T12:01:23;18.08;;;11.10;;
16828;SDS011;8531;48.078;11.968;2024-03-08T12:03:55;14.98;;;10.90;;
16828;SDS011;8531;48.078;11.968;2024-03-08T12:06:26;16.02;;;11.77;;
16828;SDS011;8531;48.078;11.968;2024-03-08T12:09:01;21.23;;;10.85;;
16828;SDS011;8531;48.078;11.968;2024-03-08T12:11:27;13.18;;;10.02;;
16828;SDS011;8531;48.078;11.968;2024-03-08T12:13:53;15.82;;;10.93;;
16828;SDS011;8531;48.078;11.968;2024-03-08T12:16:19;14.35;;;10.82;;
16828;SDS011;8531;48.078;11.968;2024-03-08T12:18:46;14.63;;;10.68;;
16828;SDS011;8531;48.078;11.968;2024-03-08T12:21:13;13.82;;;9.80;;
16828;SDS011;8531;48.078;11.968;2024-03-08T12:23:42;12.25;;;9.68;;
16828;SDS011;8531;48.078;11.968;2024-03-08T12:26:13;12.93;;;9.70;;
16828;SDS011;8531;48.078;11.968;2024-03-08T12:28:39;13.75;;;10.48;;
16828;SDS011;8531;48.078;11.968;2024-03-08T12:31:06;15.25;;;10.73;;
16828;SDS011;8531;48.078;11.968;2024-03-08T12:33:36;12.45;;;9.52;;
16828;SDS011;8531;48.078;11.968;2024-03-08T12:36:24;11.75;;;9.65;;
16828;SDS011;8531;48.078;11.968;2024-03-08T12:38:50;15.00;;;10.63;;
16828;SDS011;8531;48.078;11.968;2024-03-08T12:41:19;11.57;;;9.40;;
16828;SDS011;8531;48.078;11.968;2024-03-08T12:43:46;12.52;;;9.80;;
16828;SDS011;8531;48.078;11.968;2024-03-08T12:46:18;18.33;;;10.50;;
16828;SDS011;8531;48.078;11.968;2024-03-08T12:48:47;11.20;;;8.95;;
16828;SDS011;8531;48.078;11.968;2024-03-08T12:51:16;12.82;;;9.48;;
16828;SDS011;8531;48.078;11.968;2024-03-08T12:53:43;16.30;;;9.77;;
16828;SDS011;8531;48.078;11.968;2024-03-08T12:56:10;12.32;;;9.63;;
16828;SDS011;8531;48.078;11.968;2024-03-08T12:58:37;11.30;;;9.35;;
16828;SDS011;8531;48.078;11.968;2024-03-08T13:01:04;17.10;;;9.27;;
16828;SDS011;8531;48.078;11.968;2024-03-08T13:03:33;12.25;;;8.75;;
16828;SDS011;8531;48.078;11.968;2024-03-08T13:06:01;9.95;;;8.73;;
16828;SDS011;8531;48.078;11.968;2024-03-08T13:08:36;18.52;;;15.48;;
16828;SDS011;8531;48.078;11.968;2024-03-08T13:11:05;13.60;;;8.70;;
16828;SDS011;8531;48.078;11.968;2024-03-08T13:13:36;13.73;;;10.18;;
16828;SDS011;8531;48.078;11.968;2024-03-08T13:16:05;11.32;;;8.68;;
16828;SDS011;8531;48.078;11.968;2024-03-08T13:18:36;11.55;;;9.55;;
16828;SDS011;8531;48.078;11.968;2024-03-08T13:21:02;10.05;;;8.45;;
16828;SDS011;8531;48.078;11.968;2024-03-08T13:23:31;12.68;;;9.35;;
16828;SDS011;8531;48.078;11.968;2024-03-08T13:25:58;16.92;;;10.13;;
16828;SDS011;8531;48.078;11.968;2024-03-08T13:28:25;10.45;;;8.95;;
16828;SDS011;8531;48.078;11.968;2024-03-08T13:30:55;11.25;;;9.63;;
16828;SDS011;8531;48.078;11.968;2024-03-08T13:33:23;13.15;;;10.10;;
16828;SDS011;8531;48.078;11.968;2024-03-08T13:35:49;13.82;;;9.88;;
16828;SDS011;8531;48.078;11.968;2024-03-08T13:38:16;13.57;;;10.43;;
16828;SDS011;8531;48.078;11.968;2024-03-08T13:40:45;12.05;;;10.30;;
16828;SDS011;8531;48.078;11.968;2024-03-08T13:43:12;15.60;;;10.85;;
16828;SDS011;8531;48.078;11.968;2024-03-08T13:45:38;12.43;;;10.18;;
16828;SDS011;8531;48.078;11.968;2024-03-08T13:48:04;13.63;;;10.43;;
16828;SDS011;8531;48.078;11.968;2024-03-08T13:50:30;12.85;;;10.48;;
16828;SDS011;8531;48.078;11.968;2024-03-08T13:52:56;13.82;;;10.65;;
16828;SDS011;8531;48.078;11.968;2024-03-08T13:55:21;13.13;;;10.95;;
16828;SDS011;8531;48.078;11.968;2024-03-08T13:57:48;14.65;;;11.57;;
16828;SDS011;8531;48.078;11.968;2024-03-08T14:00:16;15.32;;;11.23;;
16828;SDS011;8531;48.078;11.968;2024-03-08T14:02:42;13.80;;;10.70;;
16828;SDS011;8531;48.078;11.968;2024-03-08T14:05:09;12.13;;;10.52;;
16828;SDS011;8531;48.078;11.968;2024-03-08T14:07:36;12.02;;;10.50;;
16828;SDS011;8531;48.078;11.968;2024-03-08T14:10:02;13.55;;;10.93;;
16828;SDS011;8531;48.078;11.968;2024-03-08T14:12:28;13.45;;;11.30;;
16828;SDS011;8531;48.078;11.968;2024-03-08T14:14:54;11.43;;;9.82;;
16828;SDS011;8531;48.078;11.968;2024-03-08T14:17:24;13.10;;;10.43;;
16828;SDS011;8531;48.078;11.968;2024-03-08T14:19:52;11.85;;;9.70;;
16828;SDS011;8531;48.078;11.968;2024-03-08T14:22:18;11.88;;;10.02;;
16828;SDS011;8531;48.078;11.968;2024-03-08T14:24:45;13.55;;;11.20;;
16828;SDS011;8531;48.078;11.968;2024-03-08T14:27:10;16.20;;;11.45;;
16828;SDS011;8531;48.078;11.968;2024-03-08T14:29:37;13.02;;;11.30;;
16828;SDS011;8531;48.078;11.968;2024-03-08T14:32:06;13.60;;;11.93;;
16828;SDS011;8531;48.078;11.968;2024-03-08T14:34:33;12.77;;;10.45;;
16828;SDS011;8531;48.078;11.968;2024-03-08T14:36:59;61.97;;;13.57;;